Time;durP1;ratioP1;P1;durP2;ratioP2;P2;SDS_P1;SDS_P2;PMS_P1;PMS_P2;Temp;Humidity;BMP_temperature;BMP_pressure;BME280_temperature;BME280_humidity;BME280_pressure;Samples;Min_cycle;Max_cycle;Signal;HPM_P1;HPM_P2
2023/12/22 00:04:35;;;;;;;9.40;4.80;;;7.10;99.90;;;5.20;100.00;97628.91;10457239;27;96585;-95
2023/12/22 00:09:39;;;;;;;10.37;5.17;;;7.00;99.90;;;5.27;100.00;97670.03;10471355;27;96520;-96
2023/12/22 00:14:43;;;;;;;10.10;4.80;;;7.10;99.90;;;5.19;100.00;97625.44;10441804;27;96552;-95
2023/12/22 00:19:47;;;;;;;6.50;3.30;;;7.10;99.90;;;5.18;100.00;97667.78;10452978;27;96229;-96
2023/12/22 00:24:50;;;;;;;5.07;2.93;;;7.10;99.90;;;5.28;100.00;97665.59;10450591;27;96465;-95
2023/12/22 00:29:54;;;;;;;6.77;2.90;;;7.20;99.90;;;5.44;100.00;97704.75;10480384;27;96599;-96
2023/12/22 00:34:58;;;;;;;5.43;2.17;;;7.20;99.90;;;5.41;100.00;97691.19;10476245;27;95778;-96
2023/12/22 00:40:05;;;;;;;5.40;2.43;;;7.30;99.90;;;5.52;100.00;97730.13;10477260;27;96556;-96
2023/12/22 00:45:09;;;;;;;6.27;2.73;;;7.40;99.90;;;5.47;100.00;97722.81;10490302;27;96515;-94
2023/12/22 00:50:12;;;;;;;5.73;3.37;;;7.40;99.90;;;5.37;100.00;97741.59;10496026;27;96518;-94
2023/12/22 00:55:16;;;;;;;6.87;3.90;;;7.30;99.90;;;5.34;100.00;97749.09;10454753;27;96382;-95
2023/12/22 01:00:19;;;;;;;6.53;3.70;;;7.20;99.90;;;5.27;100.00;97717.44;10471631;27;96580;-96
2023/12/22 01:05:23;;;;;;;6.10;3.40;;;7.10;99.90;;;5.03;100.00;97700.28;10463480;27;96870;-95
2023/12/22 01:10:26;;;;;;;7.27;3.50;;;7.00;99.90;;;4.92;100.00;97715.78;10475394;27;96470;-96
2023/12/22 01:15:30;;;;;;;7.60;4.37;;;6.90;99.90;;;5.01;100.00;97741.78;10470848;27;96538;-96
2023/12/22 01:20:34;;;;;;;7.43;3.97;;;6.90;99.90;;;4.91;100.00;97754.47;10486692;27;96434;-96
2023/12/22 01:25:38;;;;;;;7.83;3.40;;;6.80;99.90;;;4.96;100.00;97762.59;10448254;27;96427;-96
2023/12/22 01:30:42;;;;;;;7.73;3.97;;;6.80;99.90;;;4.84;100.00;97772.03;10462376;27;96435;-95
2023/12/22 01:35:45;;;;;;;6.57;3.30;;;6.80;99.90;;;4.94;100.00;97769.88;10490922;27;96471;-96
2023/12/22 01:40:49;;;;;;;5.67;2.93;;;6.70;99.90;;;4.69;100.00;97719.50;10458329;27;98068;-96
2023/12/22 01:45:56;;;;;;;4.63;2.53;;;6.70;99.90;;;4.78;100.00;97754.38;10460744;27;96545;-95
2023/12/22 01:51:02;;;;;;;3.67;1.70;;;6.70;99.90;;;4.77;100.00;97734.31;10456184;27;96491;-95
2023/12/22 01:56:06;;;;;;;3.60;1.43;;;6.70;99.90;;;4.90;100.00;97729.16;10436300;27;96656;-94
2023/12/22 02:01:09;;;;;;;2.50;1.43;;;6.70;99.90;;;4.79;100.00;97645.47;10464996;27;96849;-94
2023/12/22 02:06:13;;;;;;;2.33;1.27;;;6.80;99.90;;;4.85;100.00;97673.66;10480784;27;96618;-94
2023/12/22 02:11:17;;;;;;;2.17;1.03;;;6.70;99.90;;;4.79;100.00;97691.03;10471822;27;96901;-95
2023/12/22 02:17:01;;;;;;;4.20;1.10;;;6.70;99.90;;;4.91;100.00;97683.41;10466298;27;96621;-93
2023/12/22 02:22:07;;;;;;;1.67;0.50;;;6.80;99.90;;;4.98;100.00;97665.06;10459777;27;96449;-94
2023/12/22 02:27:27;;;;;;;1.03;0.50;;;6.80;99.90;;;4.99;100.00;97688.53;10454553;27;96943;-94
2023/12/22 02:32:36;;;;;;;1.13;0.57;;;6.80;99.90;;;4.89;100.00;97700.41;10461473;27;98444;-91
2023/12/22 02:37:41;;;;;;;3.13;0.30;;;6.80;99.90;;;4.88;100.00;97731.19;10487889;27;96482;-93
2023/12/22 02:42:44;;;;;;;2.23;0.70;;;6.70;99.90;;;4.80;100.00;97721.63;10478268;27;96534;-93
2023/12/22 02:47:48;;;;;;;0.87;0.50;;;6.60;99.90;;;4.80;100.00;97731.31;10466579;27;96487;-93
2023/12/22 02:52:52;;;;;;;3.50;0.53;;;6.60;99.90;;;4.69;100.00;97679.22;10500956;27;96610;-93
2023/12/22 02:57:55;;;;;;;1.43;0.53;;;6.60;99.90;;;4.80;100.00;97683.97;10465203;27;96525;-91
2023/12/22 03:02:59;;;;;;;1.70;0.50;;;6.60;99.90;;;4.71;100.00;97685.09;10508922;27;96516;-93
2023/12/22 03:08:03;;;;;;;0.50;0.30;;;6.60;99.90;;;4.66;100.00;97688.31;10553285;27;95628;-92
2023/12/22 03:13:06;;;;;;;0.60;0.30;;;6.50;99.90;;;4.64;100.00;97707.94;10516645;27;96569;-94
2023/12/22 03:18:09;;;;;;;2.10;0.40;;;6.50;99.90;;;4.53;100.00;97710.06;10492629;27;96450;-94
2023/12/22 03:23:13;;;;;;;0.30;0.20;;;6.50;99.90;;;4.51;100.00;97735.75;10497294;27;96519;-92
2023/12/22 03:28:17;;;;;;;1.40;0.20;;;6.40;99.90;;;4.57;100.00;97752.59;10499005;27;97321;-94
2023/12/22 03:33:20;;;;;;;1.10;0.17;;;6.40;99.90;;;4.45;100.00;97768.06;10481322;27;96527;-93
2023/12/22 03:38:23;;;;;;;0.10;0.10;;;6.40;99.90;;;4.52;100.00;97792.59;10479673;27;96393;-94
2023/12/22 03:43:28;;;;;;;1.47;0.30;;;6.40;99.90;;;4.57;100.00;97808.63;10478292;27;96437;-95
2023/12/22 03:48:31;;;;;;;1.97;0.40;;;6.40;99.90;;;4.61;100.00;97824.03;10470161;27;96678;-93
2023/12/22 03:53:35;;;;;;;5.30;2.47;;;6.50;99.90;;;4.62;100.00;97820.38;10472640;27;96452;-93
2023/12/22 03:58:39;;;;;;;4.33;0.80;;;6.50;99.90;;;4.64;100.00;97832.38;10442037;27;96731;-94
2023/12/22 04:03:43;;;;;;;2.23;0.50;;;6.50;99.90;;;4.64;100.00;97828.94;10464095;27;96658;-94
2023/12/22 04:08:46;;;;;;;1.73;0.30;;;6.60;99.90;;;4.65;100.00;97825.28;10444249;27;96994;-94
2023/12/22 04:13:49;;;;;;;1.20;0.20;;;6.60;99.90;;;4.66;100.00;97826.91;10463759;27;96411;-93
2023/12/22 04:18:53;;;;;;;5.37;1.63;;;6.60;99.90;;;4.76;100.00;97854.53;10466886;27;96516;-93
2023/12/22 04:23:57;;;;;;;1.40;0.20;;;6.60;99.90;;;4.41;100.00;97900.09;10459427;27;97672;-95
2023/12/22 04:29:01;;;;;;;4.17;0.67;;;6.40;99.90;;;4.00;100.00;97884.81;10467858;27;97682;-96
2023/12/22 04:34:04;;;;;;;7.07;3.57;;;6.00;99.90;;;3.70;100.00;97858.56;10450586;27;96526;-94
2023/12/22 04:39:08;;;;;;;0.93;0.33;;;5.70;99.90;;;3.44;100.00;97848.50;10492557;27;96446;-95
2023/12/22 04:44:11;;;;;;;0.30;0.10;;;5.40;99.90;;;3.22;100.00;97834.44;10491882;27;96539;-96
2023/12/22 04:49:15;;;;;;;2.60;0.43;;;5.20;99.90;;;3.16;100.00;97844.84;10434012;27;96493;-93
2023/12/22 04:54:18;;;;;;;1.03;0.30;;;5.00;99.90;;;3.11;100.00;97855.03;10426243;27;96584;-93
2023/12/22 04:59:22;;;;;;;2.20;0.50;;;4.90;99.90;;;3.00;100.00;97851.06;10468909;27;96434;-93
2023/12/22 05:04:25;;;;;;;4.77;0.40;;;5.00;99.90;;;3.06;100.00;97860.84;10462212;27;96462;-93
2023/12/22 05:09:28;;;;;;;0.80;0.20;;;5.00;99.90;;;2.99;100.00;97866.97;10430653;27;98073;-92
2023/12/22 05:14:32;;;;;;;3.77;0.60;;;5.00;99.90;;;3.05;100.00;97884.63;10489468;27;96497;-93
2023/12/22 05:19:35;;;;;;;4.37;0.60;;;5.00;99.90;;;2.97;100.00;97876.81;10476643;27;96466;-92
2023/12/22 05:24:39;;;;;;;2.10;0.30;;;5.00;99.90;;;2.89;100.00;97886.38;10480511;27;96561;-93
2023/12/22 05:29:42;;;;;;;1.00;0.73;;;4.90;99.90;;;2.80;100.00;97894.47;10457703;27;96386;-93
2023/12/22 05:34:45;;;;;;;1.20;0.40;;;4.90;99.90;;;2.78;100.00;97885.97;10467225;27;96893;-93
2023/12/22 05:39:49;;;;;;;1.40;0.30;;;4.80;99.90;;;2.84;100.00;97912.31;10493243;27;96401;-92
2023/12/22 05:44:55;;;;;;;2.50;0.37;;;4.80;99.90;;;2.74;100.00;97898.63;10503575;27;96368;-93
2023/12/22 05:49:59;;;;;;;1.53;0.40;;;4.80;99.90;;;2.79;100.00;97895.47;10471081;27;97996;-92
2023/12/22 05:55:04;;;;;;;3.10;1.17;;;4.80;99.90;;;2.86;100.00;97915.59;10464574;27;96645;-93
2023/12/22 06:00:09;;;;;;;2.90;0.60;;;4.80;99.90;;;2.88;100.00;97920.69;10511923;27;96448;-92
2023/12/22 06:05:13;;;;;;;2.50;0.87;;;4.80;99.90;;;3.01;98.57;97936.66;10501654;27;96607;-93
2023/12/22 06:10:17;;;;;;;2.70;0.40;;;4.90;99.90;;;3.11;95.59;97952.94;10478288;27;97421;-93
2023/12/22 06:15:20;;;;;;;6.50;0.77;;;5.00;99.90;;;3.22;92.68;97994.53;10467198;27;96608;-90
2023/12/22 06:20:24;;;;;;;3.27;0.77;;;5.10;99.90;;;3.34;88.03;97988.88;10439789;27;96469;-92
2023/12/22 06:25:27;;;;;;;1.60;0.37;;;5.20;99.90;;;3.39;85.21;97968.19;10463192;27;96605;-92
2023/12/22 06:30:30;;;;;;;3.30;0.50;;;5.40;99.90;;;3.47;83.09;98000.41;10468801;27;96348;-88
2023/12/22 06:35:34;;;;;;;1.80;0.40;;;5.40;99.90;;;3.53;81.83;98003.34;10456354;27;98019;-89
2023/12/22 06:40:38;;;;;;;2.70;0.60;;;5.40;99.90;;;3.56;81.63;98016.94;10438415;27;96832;-89
2023/12/22 06:45:42;;;;;;;1.37;0.50;;;5.50;99.90;;;3.49;82.15;98008.97;10469970;27;96541;-91
2023/12/22 06:50:45;;;;;;;0.70;0.50;;;5.50;99.90;;;3.39;83.17;98026.75;10472035;27;96569;-89
2023/12/22 06:55:49;;;;;;;6.87;0.90;;;5.40;99.90;;;3.38;84.74;98014.63;10452412;27;96529;-91
2023/12/22 07:00:53;;;;;;;4.83;0.87;;;5.30;99.90;;;3.30;84.34;98017.31;10460151;27;96855;-90
2023/12/22 07:05:57;;;;;;;3.70;0.57;;;5.30;99.90;;;3.25;85.13;98038.00;10445471;27;97464;-91
2023/12/22 07:11:00;;;;;;;2.80;0.97;;;5.20;99.90;;;3.21;82.76;98039.34;10410480;27;96889;-91
2023/12/22 07:16:06;;;;;;;4.70;0.90;;;5.20;99.90;;;3.19;82.65;98028.22;10424119;27;96574;-91
2023/12/22 07:21:18;;;;;;;1.83;0.50;;;5.10;99.90;;;3.20;82.56;98035.91;10426122;27;96509;-91
2023/12/22 07:26:21;;;;;;;3.07;0.60;;;5.20;99.90;;;3.41;78.35;98037.88;10418443;27;96677;-92
2023/12/22 07:31:25;;;;;;;3.87;0.50;;;5.30;99.90;;;3.71;76.01;98017.78;10418246;27;96654;-91
2023/12/22 07:36:30;;;;;;;4.83;0.50;;;5.50;99.70;;;4.03;71.97;98011.44;10424139;27;98065;-93
2023/12/22 07:41:33;;;;;;;2.70;0.60;;;5.80;98.20;;;4.26;72.40;98010.56;10407024;27;96520;-91
2023/12/22 07:46:38;;;;;;;4.80;0.80;;;6.00;98.50;;;4.42;70.07;98010.34;10434733;27;96471;-94
2023/12/22 07:51:43;;;;;;;4.00;0.73;;;6.20;97.80;;;4.77;68.59;98010.59;10461575;27;96728;-94
2023/12/22 07:56:47;;;;;;;1.80;0.33;;;6.40;97.40;;;4.93;67.34;97996.41;10447794;27;96593;-93
2023/12/22 08:01:51;;;;;;;5.13;0.70;;;6.60;96.90;;;5.13;68.98;97976.38;10437321;27;96406;-95
2023/12/22 08:06:54;;;;;;;3.23;0.40;;;6.80;97.40;;;5.37;71.60;97977.81;10435289;27;96637;-93
2023/12/22 08:11:58;;;;;;;3.70;0.70;;;7.00;98.00;;;5.57;68.48;97978.78;10458570;27;96398;-92
2023/12/22 08:17:01;;;;;;;2.03;0.60;;;7.20;97.40;;;5.71;67.84;97978.94;10472345;27;97593;-92
2023/12/22 08:22:05;;;;;;;4.03;0.70;;;7.40;97.20;;;5.84;65.81;98015.91;10478016;27;96861;-95
2023/12/22 08:27:11;;;;;;;6.87;0.70;;;7.50;95.90;;;5.89;64.30;98003.00;10442104;27;96338;-95
2023/12/22 08:32:14;;;;;;;2.93;0.90;;;7.60;94.90;;;5.97;64.70;98008.13;10448823;27;96474;-93
2023/12/22 08:37:18;;;;;;;3.53;0.70;;;7.70;95.20;;;6.03;65.24;98012.66;10461348;27;96497;-92
2023/12/22 08:42:22;;;;;;;4.43;0.57;;;7.80;95.40;;;6.25;63.39;98020.50;10439750;27;96559;-96
2023/12/22 08:47:25;;;;;;;3.83;0.63;;;7.90;94.60;;;6.35;63.20;98034.16;10445149;27;96658;-96
2023/12/22 08:52:29;;;;;;;3.80;0.93;;;8.00;94.70;;;6.14;64.77;98032.41;10453197;27;98248;-92
2023/12/22 08:57:32;;;;;;;4.63;0.70;;;7.90;94.90;;;5.89;66.18;98030.16;10436887;27;96578;-94
2023/12/22 09:02:36;;;;;;;2.10;0.40;;;7.70;95.00;;;5.75;67.14;98049.50;10447893;27;96712;-94
2023/12/22 09:07:39;;;;;;;1.90;0.63;;;7.60;95.20;;;5.69;70.10;98062.59;10435431;27;96454;-94
2023/12/22 09:12:43;;;;;;;2.73;0.60;;;7.50;96.20;;;5.83;70.07;98053.84;10449660;27;96497;-93
2023/12/22 09:17:46;;;;;;;4.13;0.77;;;7.70;96.30;;;5.99;69.50;98055.41;10454448;27;96548;-93
2023/12/22 09:22:50;;;;;;;0.97;0.37;;;7.80;96.00;;;6.03;67.08;98056.66;10461350;27;96499;-95
2023/12/22 09:27:53;;;;;;;2.80;0.40;;;7.90;94.80;;;5.96;68.87;98053.16;10450844;27;96974;-93
2023/12/22 09:32:57;;;;;;;1.03;0.40;;;7.90;95.60;;;5.71;72.39;98061.44;10457716;27;96818;-95
2023/12/22 09:38:01;;;;;;;2.33;0.70;;;7.60;96.50;;;5.55;72.48;98054.59;10447538;27;96574;-93
2023/12/22 09:43:09;;;;;;;4.30;0.80;;;7.50;96.80;;;5.72;72.55;98051.69;10423570;27;96443;-93
2023/12/22 09:48:17;;;;;;;1.43;0.63;;;7.60;96.70;;;5.89;71.81;98050.44;10480850;27;97019;-92
2023/12/22 09:53:21;;;;;;;4.43;0.40;;;7.80;96.60;;;6.13;72.84;98065.06;10451811;27;96507;-94
2023/12/22 09:58:25;;;;;;;3.03;0.20;;;8.10;96.80;;;6.19;73.58;98074.03;10416873;27;97002;-94
2023/12/22 10:03:29;;;;;;;4.60;0.87;;;8.10;97.00;;;6.01;73.91;98056.84;10390051;28;96407;-95
2023/12/22 10:08:34;;;;;;;3.13;0.57;;;8.00;97.00;;;5.91;72.80;98043.19;10365274;28;96643;-94
2023/12/22 10:13:40;;;;;;;1.10;0.40;;;7.90;96.90;;;5.83;73.11;98059.09;10395172;28;97377;-95
2023/12/22 10:18:44;;;;;;;2.30;0.47;;;7.80;96.80;;;5.80;72.88;98064.75;10357825;28;96679;-94
2023/12/22 10:23:48;;;;;;;2.07;0.80;;;7.80;96.80;;;5.87;72.57;98074.31;10376572;28;96810;-95
2023/12/22 10:28:52;;;;;;;5.90;0.63;;;7.80;96.70;;;5.84;72.60;98042.28;10406123;28;96971;-94
2023/12/22 10:33:56;;;;;;;3.07;0.70;;;7.80;96.60;;;5.84;72.25;98055.47;10394852;28;96666;-92
2023/12/22 10:38:59;;;;;;;7.87;3.13;;;7.80;96.40;;;5.78;72.73;98032.50;10403583;28;96469;-94
2023/12/22 10:44:04;;;;;;;3.00;0.80;;;7.80;96.50;;;5.92;72.32;98034.25;10376879;28;96626;-95
2023/12/22 10:49:08;;;;;;;2.77;0.60;;;7.80;96.40;;;5.85;71.97;98018.34;10389062;28;96570;-94
2023/12/22 10:54:11;;;;;;;2.77;0.80;;;7.90;96.50;;;6.03;73.72;98015.28;10396822;27;96811;-95
2023/12/22 10:59:22;;;;;;;2.77;0.53;;;8.00;96.70;;;6.11;70.00;98016.94;10458991;27;96422;-94
2023/12/22 11:04:35;;;;;;;1.83;0.77;;;8.00;95.70;;;6.08;69.63;98022.63;10478737;27;96318;-96
2023/12/22 11:09:47;;;;;;;3.60;0.83;;;8.00;95.70;;;6.08;69.94;98022.63;10474082;27;96375;-94
2023/12/22 11:14:52;;;;;;;1.67;0.37;;;7.90;95.70;;;6.07;69.32;98016.53;10458365;27;96460;-93
2023/12/22 11:19:56;;;;;;;3.47;0.40;;;8.00;95.60;;;6.12;67.16;97993.03;10426886;27;96923;-94
2023/12/22 11:25:02;;;;;;;3.80;0.20;;;8.00;94.70;;;6.20;66.86;98005.25;10477719;27;96757;-94
2023/12/22 11:30:10;;;;;;;0.87;0.33;;;8.10;94.60;;;6.19;65.71;98013.38;10437209;27;96878;-94
2023/12/22 11:35:14;;;;;;;1.47;0.40;;;8.20;94.20;;;6.23;67.00;98011.97;10462084;27;96555;-94
2023/12/22 11:40:18;;;;;;;1.17;0.30;;;8.10;94.50;;;6.26;66.86;98001.03;10459688;27;96540;-93
2023/12/22 11:45:22;;;;;;;2.00;0.80;;;8.20;94.40;;;6.32;65.35;98018.72;10454299;27;96616;-94
2023/12/22 11:50:30;;;;;;;0.93;0.23;;;8.20;94.00;;;6.28;64.76;98025.38;10454686;27;96414;-96
2023/12/22 11:56:12;;;;;;;0.87;0.30;;;8.30;93.50;;;6.26;64.62;98025.59;10431423;27;97262;-96
2023/12/22 12:01:18;;;;;;;0.52;0.20;;;8.20;93.30;;;6.42;64.31;98032.41;10408251;27;96571;-93
2023/12/22 12:06:30;;;;;;;0.67;0.20;;;8.30;93.60;;;6.47;64.08;98048.44;10446975;27;96436;-92
2023/12/22 12:11:52;;;;;;;0.77;0.30;;;8.40;93.10;;;6.46;63.28;98051.28;10467627;27;96807;-94
2023/12/22 12:17:08;;;;;;;0.80;0.30;;;8.30;92.90;;;6.30;63.26;98052.41;10424642;27;96626;-94
2023/12/22 12:22:15;;;;;;;1.07;0.40;;;8.30;92.70;;;6.21;63.79;98019.25;10419616;28;96902;-92
2023/12/22 12:27:19;;;;;;;3.27;0.60;;;8.20;93.00;;;6.09;63.76;98003.97;10404194;27;97091;-94
2023/12/22 12:32:24;;;;;;;1.50;0.23;;;8.20;92.90;;;6.17;63.62;98010.91;10456175;27;96807;-91
2023/12/22 12:37:29;;;;;;;1.13;0.47;;;8.10;92.90;;;6.06;65.60;97998.28;10444879;27;96690;-96
2023/12/22 12:42:37;;;;;;;2.70;0.50;;;8.00;93.50;;;5.96;67.20;98016.25;10456988;27;96404;-94
2023/12/22 12:47:42;;;;;;;1.13;0.50;;;7.90;93.90;;;5.47;71.94;98088.16;10466323;27;96424;-93
2023/12/22 12:52:46;;;;;;;1.10;0.30;;;7.60;95.30;;;4.74;89.93;98129.38;10481884;27;96449;-95
2023/12/22 12:57:55;;;;;;;1.17;0.50;;;6.80;99.30;;;3.88;100.00;98134.06;10466937;27;96634;-96
2023/12/22 13:03:05;;;;;;;1.80;0.50;;;6.10;99.90;;;3.22;100.00;98148.59;10463038;27;96598;-96
2023/12/22 13:08:17;;;;;;;3.40;0.40;;;5.40;99.90;;;2.26;100.00;98139.00;10489362;22;96753;-88
2023/12/22 13:13:21;;;;;;;0.60;0.30;;;4.40;99.90;;;1.76;100.00;98113.81;10479082;27;97214;-91
2023/12/22 13:18:25;;;;;;;0.93;0.40;;;3.80;99.90;;;1.60;100.00;98098.91;10457799;27;97025;-92
2023/12/22 13:23:28;;;;;;;3.00;0.90;;;3.60;99.90;;;1.67;100.00;98085.97;10432223;27;96657;-93
2023/12/22 13:28:33;;;;;;;3.97;1.60;;;3.60;99.90;;;1.74;100.00;98080.91;10428757;27;96459;-93
2023/12/22 13:33:37;;;;;;;3.47;0.80;;;3.60;99.90;;;1.87;100.00;98082.06;10426599;27;97248;-92
2023/12/22 13:38:48;;;;;;;3.50;0.60;;;3.70;99.90;;;2.01;100.00;98070.09;10464090;27;96463;-91
2023/12/22 13:43:52;;;;;;;1.83;0.70;;;3.90;99.90;;;2.17;100.00;98060.59;10443010;27;96615;-91
2023/12/22 13:48:57;;;;;;;1.53;0.70;;;4.00;99.90;;;2.30;100.00;98058.25;10484213;27;96503;-91
2023/12/22 13:54:00;;;;;;;2.30;0.90;;;4.20;99.90;;;2.32;100.00;98054.47;10462948;27;96522;-93
2023/12/22 13:59:04;;;;;;;1.43;0.60;;;4.30;99.90;;;2.41;100.00;98048.25;10449160;27;96563;-90
2023/12/22 14:04:10;;;;;;;1.10;0.43;;;4.30;99.90;;;2.46;100.00;98041.66;10424486;28;96404;-90
2023/12/22 14:09:14;;;;;;;1.70;0.60;;;4.40;99.90;;;2.62;100.00;98062.59;10442792;27;96629;-91
2023/12/22 14:14:19;;;;;;;2.33;1.00;;;4.50;99.90;;;2.78;100.00;98080.88;10494624;27;97695;-91
2023/12/22 14:19:22;;;;;;;2.67;0.77;;;4.60;99.90;;;2.76;100.00;98085.50;10475691;27;97123;-92
2023/12/22 14:24:26;;;;;;;1.13;0.60;;;4.70;99.90;;;2.71;100.00;98077.31;10467148;27;97943;-91
2023/12/22 14:29:29;;;;;;;4.13;0.83;;;4.70;99.90;;;2.56;100.00;98076.38;10467587;27;96614;-92
2023/12/22 14:34:33;;;;;;;1.40;0.80;;;4.50;99.90;;;2.44;100.00;98086.38;10472044;27;96672;-93
2023/12/22 14:39:37;;;;;;;2.00;0.73;;;4.40;99.90;;;2.40;100.00;98085.13;10457549;27;98282;-92
2023/12/22 14:44:41;;;;;;;2.03;1.00;;;4.30;99.90;;;2.32;100.00;98101.66;10465166;27;98090;-92
2023/12/22 14:49:44;;;;;;;2.23;0.70;;;4.30;99.90;;;2.42;100.00;98119.84;10453097;27;96623;-92
2023/12/22 14:54:48;;;;;;;0.73;0.40;;;4.30;99.90;;;2.49;100.00;98115.56;10460609;27;96571;-92
2023/12/22 14:59:52;;;;;;;4.77;0.80;;;4.40;99.90;;;2.65;100.00;98151.41;10466316;27;97793;-90
2023/12/22 15:04:55;;;;;;;4.63;0.50;;;4.50;99.90;;;2.74;100.00;98124.16;10456595;27;96605;-91
2023/12/22 15:10:05;;;;;;;2.00;0.87;;;4.60;99.90;;;2.85;100.00;98138.72;10453595;27;96526;-91
2023/12/22 15:15:09;;;;;;;2.47;0.60;;;4.70;99.90;;;2.86;100.00;98072.97;10464174;27;96992;-91
2023/12/22 15:20:13;;;;;;;0.50;0.40;;;4.80;99.90;;;2.87;100.00;98132.31;10471970;27;96660;-91
2023/12/22 15:25:16;;;;;;;2.13;0.47;;;4.80;99.90;;;2.88;100.00;98141.84;10460597;27;96635;-91
2023/12/22 15:30:20;;;;;;;0.57;0.30;;;4.80;99.90;;;2.87;100.00;98132.31;10465007;27;97828;-89
2023/12/22 15:35:23;;;;;;;1.07;0.50;;;4.80;99.90;;;2.91;100.00;98148.53;10472962;27;97959;-87
2023/12/22 15:40:27;;;;;;;1.80;0.50;;;4.80;99.90;;;2.94;98.03;98182.34;10461333;27;98597;-84
2023/12/22 15:45:31;;;;;;;1.80;0.70;;;4.80;99.90;;;2.93;95.65;98151.81;10470117;27;96512;-89
2023/12/22 15:50:35;;;;;;;11.50;5.63;;;4.80;99.90;;;2.93;94.21;98184.09;10482685;27;97669;-88
2023/12/22 15:55:38;;;;;;;3.60;1.43;;;4.90;99.90;;;2.92;93.64;98194.78;10472032;27;96459;-88
2023/12/22 16:00:41;;;;;;;2.63;0.70;;;4.90;99.90;;;2.92;92.81;98200.84;10447888;27;98221;-89
2023/12/22 16:05:45;;;;;;;0.70;0.40;;;4.90;99.90;;;2.90;93.79;98197.56;10457288;27;96709;-88
2023/12/22 16:10:48;;;;;;;0.97;0.40;;;4.90;99.90;;;2.91;93.88;98193.16;10472167;27;97691;-89
2023/12/22 16:15:52;;;;;;;2.60;0.60;;;4.90;99.90;;;2.89;94.50;98195.94;10496510;27;96620;-89
2023/12/22 16:20:56;;;;;;;2.77;0.60;;;4.80;99.90;;;2.85;96.09;98205.13;10478854;27;96509;-91
2023/12/22 16:26:02;;;;;;;2.27;0.70;;;4.80;99.90;;;2.82;96.41;98205.47;10455687;27;97976;-87
2023/12/22 16:31:06;;;;;;;1.00;0.50;;;4.80;99.90;;;2.79;97.93;98200.56;10475334;27;97282;-90
2023/12/22 16:36:11;;;;;;;1.77;0.77;;;4.80;99.90;;;2.74;99.28;98197.59;10494761;27;96489;-91
2023/12/22 16:41:15;;;;;;;3.57;0.80;;;4.70;99.90;;;2.68;100.00;98183.34;10438339;27;96614;-89
2023/12/22 16:46:20;;;;;;;7.83;2.33;;;4.70;99.90;;;2.66;100.00;98177.47;10444219;27;96615;-88
2023/12/22 16:51:24;;;;;;;5.40;1.60;;;4.70;99.90;;;2.65;100.00;98198.63;10456292;27;96524;-89
2023/12/22 16:56:27;;;;;;;7.80;2.50;;;4.60;99.90;;;2.66;100.00;98202.88;10464468;27;98075;-89
2023/12/22 17:01:30;;;;;;;2.47;0.93;;;4.70;99.90;;;2.68;100.00;98206.13;10464839;27;96489;-89
2023/12/22 17:06:53;;;;;;;0.77;0.40;;;4.70;99.90;;;2.67;100.00;98196.63;10451213;27;97943;-90
2023/12/22 17:11:57;;;;;;;3.27;0.60;;;4.70;99.90;;;2.63;100.00;98203.19;10452984;27;96650;-90
2023/12/22 17:17:03;;;;;;;4.13;1.43;;;4.70;99.90;;;2.66;100.00;98201.06;10458019;27;97500;-90
2023/12/22 17:22:07;;;;;;;9.00;3.70;;;4.70;99.90;;;2.64;100.00;98170.75;10458693;27;96531;-90
2023/12/22 17:27:10;;;;;;;5.87;3.40;;;4.70;99.90;;;2.60;100.00;98187.81;10468039;27;97864;-90
2023/12/22 17:32:13;;;;;;;4.43;2.47;;;4.70;99.90;;;2.64;100.00;98204.84;10461527;27;97027;-90
2023/12/22 17:37:17;;;;;;;2.93;1.47;;;4.70;99.90;;;2.61;100.00;98213.03;10465163;27;96757;-90
2023/12/22 17:42:21;;;;;;;6.10;1.93;;;4.60;99.90;;;2.53;100.00;98203.38;10471364;27;96485;-90
2023/12/22 17:47:24;;;;;;;2.43;0.70;;;4.60;99.90;;;2.47;100.00;98184.88;10458351;27;97611;-90
2023/12/22 17:52:27;;;;;;;3.37;1.60;;;4.50;99.90;;;2.32;100.00;98168.97;10484499;27;96517;-90
2023/12/22 17:57:31;;;;;;;3.20;1.20;;;4.30;99.90;;;2.24;100.00;98172.44;10454090;27;96485;-88
2023/12/22 18:02:34;;;;;;;3.90;1.50;;;4.20;99.90;;;2.22;100.00;98179.66;10454344;27;97968;-92
2023/12/22 18:07:38;;;;;;;2.80;0.90;;;4.20;99.90;;;2.27;100.00;98184.38;10455388;27;96563;-88
2023/12/22 18:12:43;;;;;;;3.73;2.10;;;4.20;99.90;;;2.30;100.00;98205.84;10493994;27;96759;-88
2023/12/22 18:17:46;;;;;;;5.60;1.80;;;4.20;99.90;;;2.30;100.00;98200.59;10463009;27;97848;-91
2023/12/22 18:22:50;;;;;;;3.20;1.37;;;4.20;99.90;;;2.32;100.00;98201.25;10488762;27;96586;-92
2023/12/22 18:27:54;;;;;;;2.03;1.30;;;4.20;99.90;;;2.29;100.00;98219.94;10463797;27;96585;-88
2023/12/22 18:32:57;;;;;;;2.30;0.70;;;4.20;99.90;;;2.19;100.00;98213.22;10484415;27;96878;-89
2023/12/22 18:38:01;;;;;;;1.00;0.60;;;4.10;99.90;;;2.01;100.00;98250.84;10464932;27;96769;-91
2023/12/22 18:43:04;;;;;;;1.07;0.63;;;4.00;99.90;;;1.75;100.00;98240.50;10463880;27;97973;-88
2023/12/22 18:48:08;;;;;;;2.03;0.80;;;3.80;99.90;;;1.61;100.00;98235.84;10433066;27;97041;-90
2023/12/22 18:53:12;;;;;;;1.40;0.80;;;3.60;99.90;;;1.47;100.00;98239.09;10442480;27;96645;-91
2023/12/22 18:58:18;;;;;;;2.63;1.50;;;3.50;99.90;;;1.40;100.00;98230.22;10417667;27;96604;-90
2023/12/22 19:03:22;;;;;;;2.50;0.90;;;3.40;99.90;;;1.31;100.00;98197.94;10446711;27;97412;-93
2023/12/22 19:08:26;;;;;;;1.93;0.87;;;3.30;99.90;;;1.25;100.00;98181.09;10470529;27;96587;-93
2023/12/22 19:13:29;;;;;;;4.37;1.30;;;3.30;99.90;;;1.24;100.00;98186.47;10439833;27;96523;-92
2023/12/22 19:18:33;;;;;;;1.50;0.93;;;3.20;99.90;;;1.19;100.00;98178.28;10443910;27;98209;-90
2023/12/22 19:23:37;;;;;;;2.07;0.73;;;3.20;99.90;;;1.17;100.00;98165.38;10454300;27;97363;-92
2023/12/22 19:28:40;;;;;;;2.27;0.97;;;3.20;99.90;;;1.21;100.00;98166.69;10465190;27;96917;-84
2023/12/22 19:33:43;;;;;;;1.20;0.67;;;3.20;99.90;;;1.25;100.00;98178.47;10459365;27;96550;-85
2023/12/22 19:38:47;;;;;;;2.03;0.80;;;3.20;99.90;;;1.32;100.00;98168.22;10480482;27;96592;-84
2023/12/22 19:43:51;;;;;;;1.83;0.83;;;3.30;99.90;;;1.37;100.00;98144.97;10511163;27;96362;-85
2023/12/22 19:48:55;;;;;;;0.80;0.53;;;3.30;99.90;;;1.40;100.00;98134.22;10452743;27;96749;-86
2023/12/22 19:53:58;;;;;;;1.93;0.90;;;3.40;99.90;;;1.46;100.00;98137.97;10468002;27;96451;-86
2023/12/22 19:59:02;;;;;;;2.50;0.90;;;3.40;99.90;;;1.47;100.00;98140.44;10459527;27;97091;-90
2023/12/22 20:04:06;;;;;;;2.83;1.20;;;3.40;99.90;;;1.48;100.00;98128.97;10478443;27;96704;-88
2023/12/22 20:09:10;;;;;;;2.80;1.20;;;3.50;99.90;;;1.53;100.00;98129.31;10431241;27;96722;-89
2023/12/22 20:14:13;;;;;;;4.33;0.73;;;3.50;99.90;;;1.56;100.00;98143.88;10469490;27;97051;-89
2023/12/22 20:19:18;;;;;;;2.20;0.93;;;3.50;99.90;;;1.59;100.00;98138.34;10464693;27;96592;-88
2023/12/22 20:24:22;;;;;;;3.13;1.03;;;3.60;99.90;;;1.64;100.00;98137.84;10451375;27;97532;-88
2023/12/22 20:29:25;;;;;;;1.93;1.10;;;3.60;99.90;;;1.72;100.00;98133.44;10440229;27;96693;-88
2023/12/22 20:34:29;;;;;;;2.03;1.00;;;3.70;99.90;;;1.85;100.00;98115.44;10461121;27;96795;-89
2023/12/22 20:39:32;;;;;;;1.23;0.70;;;3.80;99.90;;;1.92;100.00;98105.16;10456493;27;96573;-90
2023/12/22 20:44:39;;;;;;;1.50;0.50;;;3.90;99.90;;;2.07;100.00;98106.09;10437525;27;96737;-89
2023/12/22 20:49:43;;;;;;;1.30;0.60;;;4.00;99.90;;;2.13;100.00;98094.16;10455335;27;96678;-88
2023/12/22 20:54:47;;;;;;;1.60;0.77;;;4.00;99.90;;;2.02;100.00;98076.16;10429794;27;97448;-87
2023/12/22 20:59:50;;;;;;;2.53;1.00;;;4.00;99.90;;;2.11;100.00;98085.66;10444691;27;96588;-87
2023/12/22 21:04:54;;;;;;;1.20;0.50;;;4.10;99.90;;;2.10;100.00;98092.69;10449493;27;97126;-86
2023/12/22 21:09:58;;;;;;;1.93;0.60;;;4.00;99.90;;;2.08;100.00;98078.09;10445051;27;97747;-87
2023/12/22 21:15:02;;;;;;;3.70;1.03;;;4.00;99.90;;;1.96;100.00;98082.88;10466988;27;97780;-86
2023/12/22 21:20:06;;;;;;;3.00;1.00;;;4.00;99.90;;;2.04;100.00;98103.00;10459669;27;96994;-87
2023/12/22 21:25:10;;;;;;;1.87;0.67;;;4.00;99.90;;;1.96;100.00;98095.16;10480013;27;96483;-88
2023/12/22 21:30:14;;;;;;;3.30;0.97;;;3.90;99.90;;;1.93;100.00;98114.63;10469956;27;96700;-88